createdAt,value
2019-01-04T00:00:30.733Z,1039.82
2019-01-04T00:01:30.664Z,1039.82
2019-01-04T00:02:30.606Z,1039.81
2019-01-04T00:03:30.624Z,1039.83
2019-01-04T00:04:30.964Z,1039.86
2019-01-04T00:05:30.410Z,1039.87
2019-01-04T00:06:30.394Z,1039.85
2019-01-04T00:07:30.843Z,1039.87
2019-01-04T00:08:30.234Z,1039.83
2019-01-04T00:09:30.183Z,1039.88
2019-01-04T00:10:30.233Z,1039.85
2019-01-04T00:11:30.326Z,1039.8
2019-01-04T00:12:30.328Z,1039.84
2019-01-04T00:13:30.178Z,1039.84
2019-01-04T00:14:30.306Z,1039.86
2019-01-04T00:15:30.500Z,1039.84
2019-01-04T00:16:30.373Z,1039.87
2019-01-04T00:17:30.072Z,1039.89
2019-01-04T00:18:30.265Z,1039.92
2019-01-04T00:19:30.522Z,1039.91
2019-01-04T00:20:30.652Z,1039.94
2019-01-04T00:21:30.725Z,1039.95
2019-01-04T00:22:30.329Z,1039.96
2019-01-04T00:23:30.645Z,1039.92
2019-01-04T00:24:30.108Z,1039.95
2019-01-04T00:25:30.447Z,1039.93
2019-01-04T00:26:30.524Z,1039.94
2019-01-04T00:27:30.180Z,1039.94
2019-01-04T00:28:30.212Z,1039.95
2019-01-04T00:29:30.129Z,1039.93
2019-01-04T00:30:30.225Z,1039.95
2019-01-04T00:31:30.233Z,1039.98
2019-01-04T00:32:30.313Z,1040
2019-01-04T00:33:30.458Z,1039.98
2019-01-04T00:34:30.251Z,1039.98
2019-01-04T00:35:30.162Z,1039.97
2019-01-04T00:36:30.648Z,1039.97
2019-01-04T00:37:30.159Z,1039.98
2019-01-04T00:38:30.657Z,1039.95
2019-01-04T00:39:30.740Z,1039.94
2019-01-04T00:40:30.405Z,1039.92
2019-01-04T00:41:30.524Z,1039.88
2019-01-04T00:42:30.481Z,1039.93
2019-01-04T00:43:30.628Z,1039.87
2019-01-04T00:44:30.251Z,1039.82
2019-01-04T00:45:31.002Z,1039.85
2019-01-04T00:46:30.324Z,1039.8
2019-01-04T00:47:30.168Z,1039.82
2019-01-04T00:48:30.528Z,1039.81
2019-01-04T00:49:30.642Z,1039.81
2019-01-04T00:50:31.052Z,1039.81
2019-01-04T00:51:30.312Z,1039.84
2019-01-04T00:52:30.375Z,1039.8
2019-01-04T00:53:30.212Z,1039.81
2019-01-04T00:54:30.284Z,1039.81
2019-01-04T00:55:30.046Z,1039.77
2019-01-04T00:56:30.570Z,1039.77
2019-01-04T00:57:30.130Z,1039.77
2019-01-04T00:58:30.706Z,1039.76
2019-01-04T00:59:30.143Z,1039.79
2019-01-04T01:00:30.712Z,1039.78
2019-01-04T01:01:31.025Z,1039.79
2019-01-04T01:02:30.759Z,1039.8
2019-01-04T01:03:30.748Z,1039.8
2019-01-04T01:04:30.815Z,1039.81
2019-01-04T01:05:30.657Z,1039.79
2019-01-04T01:06:31.251Z,1039.78
2019-01-04T01:07:30.566Z,1039.77
2019-01-04T01:08:30.966Z,1039.75
2019-01-04T01:09:30.671Z,1039.73
2019-01-04T01:10:30.176Z,1039.71
2019-01-04T01:11:30.600Z,1039.71
2019-01-04T01:12:30.137Z,1039.68
2019-01-04T01:13:30.380Z,1039.69
2019-01-04T01:14:30.717Z,1039.67
2019-01-04T01:15:30.432Z,1039.65
2019-01-04T01:16:30.548Z,1039.69
2019-01-04T01:17:30.341Z,1039.72
2019-01-04T01:18:30.216Z,1039.69
2019-01-04T01:19:30.300Z,1039.69
2019-01-04T01:20:30.148Z,1039.69
2019-01-04T01:21:30.561Z,1039.66
2019-01-04T01:22:30.156Z,1039.68
2019-01-04T01:23:30.068Z,1039.66
2019-01-04T01:24:30.673Z,1039.65
2019-01-04T01:25:30.059Z,1039.66
2019-01-04T01:26:30.588Z,1039.65
2019-01-04T01:27:30.295Z,1039.63
2019-01-04T01:28:31.051Z,1039.65
2019-01-04T01:29:30.675Z,1039.65
2019-01-04T01:30:30.616Z,1039.66
2019-01-04T01:31:30.429Z,1039.69
2019-01-04T01:32:30.093Z,1039.69
2019-01-04T01:33:30.098Z,1039.7
2019-01-04T01:34:30.592Z,1039.74
2019-01-04T01:35:30.069Z,1039.72
2019-01-04T01:36:30.223Z,1039.74
2019-01-04T01:37:30.373Z,1039.74
2019-01-04T01:38:30.170Z,1039.75
2019-01-04T01:39:30.471Z,1039.75
2019-01-04T01:40:30.011Z,1039.77
2019-01-04T01:41:30.352Z,1039.75
2019-01-04T01:42:30.570Z,1039.76
2019-01-04T01:43:30.848Z,1039.75
2019-01-04T01:44:30.722Z,1039.71
2019-01-04T01:45:30.056Z,1039.72
2019-01-04T01:46:30.119Z,1039.7
2019-01-04T01:47:30.088Z,1039.68
2019-01-04T01:48:30.217Z,1039.74
2019-01-04T01:49:30.283Z,1039.75
2019-01-04T01:50:30.343Z,1039.69
2019-01-04T01:51:30.205Z,1039.74
2019-01-04T01:52:30.262Z,1039.73
2019-01-04T01:53:30.064Z,1039.67
2019-01-04T01:54:30.599Z,1039.65
2019-01-04T01:55:30.212Z,1039.65
2019-01-04T01:56:30.248Z,1039.65
2019-01-04T01:57:30.702Z,1039.64
2019-01-04T01:58:30.093Z,1039.62
2019-01-04T01:59:30.610Z,1039.61
2019-01-04T02:00:30.279Z,1039.6
2019-01-04T02:01:30.235Z,1039.61
2019-01-04T02:02:30.342Z,1039.64
2019-01-04T02:03:30.146Z,1039.6
2019-01-04T02:04:30.867Z,1039.63
2019-01-04T02:05:29.977Z,1039.6
2019-01-04T02:06:30.349Z,1039.63
2019-01-04T02:07:30.229Z,1039.6
2019-01-04T02:08:30.104Z,1039.61
2019-01-04T02:09:30.271Z,1039.63
2019-01-04T02:10:29.964Z,1039.65
2019-01-04T02:11:30.165Z,1039.66
2019-01-04T02:12:30.143Z,1039.7
2019-01-04T02:13:30.165Z,1039.74
2019-01-04T02:14:30.255Z,1039.74
2019-01-04T02:15:30.214Z,1039.8
2019-01-04T02:16:30.172Z,1039.85
2019-01-04T02:17:30.428Z,1039.88
2019-01-04T02:18:30.148Z,1039.88
2019-01-04T02:19:30.325Z,1039.9
2019-01-04T02:20:30.095Z,1039.89
2019-01-04T02:21:30.378Z,1039.88
2019-01-04T02:22:30.160Z,1039.89
2019-01-04T02:23:30.952Z,1039.86
2019-01-04T02:24:30.489Z,1039.87
2019-01-04T02:25:30.256Z,1039.89
2019-01-04T02:26:30.353Z,1039.87
2019-01-04T02:27:30.188Z,1039.88
2019-01-04T02:28:30.424Z,1039.88
2019-01-04T02:29:30.845Z,1039.9
2019-01-04T02:30:30.755Z,1039.9
2019-01-04T02:31:30.461Z,1039.93
2019-01-04T02:32:30.340Z,1039.95
2019-01-04T02:33:30.476Z,1039.93
2019-01-04T02:34:30.443Z,1039.97
2019-01-04T02:35:30.183Z,1039.96
2019-01-04T02:36:30.292Z,1039.95
2019-01-04T02:37:31.093Z,1039.97
2019-01-04T02:38:30.092Z,1040.01
2019-01-04T02:39:30.329Z,1040.01
2019-01-04T02:40:30.649Z,1040
2019-01-04T02:41:30.348Z,1040.02
2019-01-04T02:42:30.204Z,1039.97
2019-01-04T02:43:30.727Z,1039.96
2019-01-04T02:44:30.234Z,1039.95
2019-01-04T02:45:31.103Z,1039.96
2019-01-04T02:46:30.290Z,1039.95
2019-01-04T02:47:30.510Z,1039.93
2019-01-04T02:48:30.032Z,1039.95
2019-01-04T02:49:30.393Z,1039.96
2019-01-04T02:50:30.152Z,1039.94
2019-01-04T02:51:30.082Z,1039.94
2019-01-04T02:52:30.158Z,1039.96
2019-01-04T02:53:30.379Z,1039.95
2019-01-04T02:54:30.226Z,1039.96
2019-01-04T02:55:30.295Z,1039.94
2019-01-04T02:56:30.358Z,1039.96
2019-01-04T02:57:31.074Z,1039.97
2019-01-04T02:58:30.624Z,1039.94
2019-01-04T02:59:30.212Z,1039.95
2019-01-04T03:00:30.583Z,1039.94
2019-01-04T03:01:30.012Z,1039.93
2019-01-04T03:02:30.039Z,1039.95
2019-01-04T03:03:30.206Z,1039.98
2019-01-04T03:04:30.088Z,1039.97
2019-01-04T03:05:30.097Z,1039.95
2019-01-04T03:06:30.314Z,1039.93
2019-01-04T03:07:30.489Z,1039.92
2019-01-04T03:08:30.948Z,1039.91
2019-01-04T03:09:30.241Z,1039.88
2019-01-04T03:10:30.570Z,1039.89
2019-01-04T03:11:30.303Z,1039.83
2019-01-04T03:12:30.415Z,1039.84
2019-01-04T03:13:30.612Z,1039.87
2019-01-04T03:14:30.470Z,1039.83
2019-01-04T03:15:30.055Z,1039.8
2019-01-04T03:16:30.768Z,1039.79
2019-01-04T03:17:30.141Z,1039.81
2019-01-04T03:18:30.134Z,1039.77
2019-01-04T03:19:30.300Z,1039.76
2019-01-04T03:20:30.398Z,1039.74
2019-01-04T03:21:30.278Z,1039.69
2019-01-04T03:22:30.911Z,1039.66
2019-01-04T03:23:30.542Z,1039.65
2019-01-04T03:24:30.713Z,1039.62
2019-01-04T03:25:30.285Z,1039.61
2019-01-04T03:26:30.427Z,1039.59
2019-01-04T03:27:30.235Z,1039.62
2019-01-04T03:28:30.527Z,1039.61
2019-01-04T03:29:30.248Z,1039.63
2019-01-04T03:30:30.428Z,1039.59
2019-01-04T03:31:30.269Z,1039.63
2019-01-04T03:32:29.966Z,1039.59
2019-01-04T03:33:30.584Z,1039.62
2019-01-04T03:34:31.341Z,1039.6
2019-01-04T03:35:30.153Z,1039.62
2019-01-04T03:36:30.197Z,1039.58
2019-01-04T03:37:30.151Z,1039.61
2019-01-04T03:38:30.650Z,1039.58
2019-01-04T03:39:30.252Z,1039.6
2019-01-04T03:40:30.159Z,1039.64
2019-01-04T03:41:30.119Z,1039.65
2019-01-04T03:42:30.554Z,1039.65
2019-01-04T03:43:30.063Z,1039.69
2019-01-04T03:44:30.010Z,1039.69
2019-01-04T03:45:30.034Z,1039.65
2019-01-04T03:46:30.380Z,1039.69
2019-01-04T03:47:30.027Z,1039.69
2019-01-04T03:48:30.219Z,1039.69
2019-01-04T03:49:30.265Z,1039.69
2019-01-04T03:50:30.034Z,1039.7
2019-01-04T03:51:30.246Z,1039.69
2019-01-04T03:52:29.977Z,1039.64
2019-01-04T03:53:30.294Z,1039.65
2019-01-04T03:54:30.290Z,1039.61
2019-01-04T03:55:30.123Z,1039.67
2019-01-04T03:56:30.320Z,1039.67
2019-01-04T03:57:30.043Z,1039.62
2019-01-04T03:58:30.174Z,1039.66
2019-01-04T03:59:30.338Z,1039.67
2019-01-04T04:00:30.013Z,1039.69
2019-01-04T04:01:30.579Z,1039.66
2019-01-04T04:02:30.100Z,1039.64
2019-01-04T04:03:30.339Z,1039.65
2019-01-04T04:04:30.067Z,1039.59
2019-01-04T04:05:29.996Z,1039.59
2019-01-04T04:06:30.312Z,1039.56
2019-01-04T04:07:30.318Z,1039.53
2019-01-04T04:08:30.270Z,1039.53
2019-01-04T04:09:30.244Z,1039.51
2019-01-04T04:10:30.093Z,1039.54
2019-01-04T04:11:31.064Z,1039.53
2019-01-04T04:12:30.110Z,1039.51
2019-01-04T04:13:30.131Z,1039.49
2019-01-04T04:14:30.024Z,1039.46
2019-01-04T04:15:30.023Z,1039.46
2019-01-04T04:16:30.562Z,1039.42
2019-01-04T04:17:30.032Z,1039.39
2019-01-04T04:18:30.265Z,1039.41
2019-01-04T04:19:29.864Z,1039.38
2019-01-04T04:20:30.149Z,1039.37
2019-01-04T04:21:30.366Z,1039.38
2019-01-04T04:22:30.627Z,1039.39
2019-01-04T04:23:30.548Z,1039.34
2019-01-04T04:24:29.936Z,1039.35
2019-01-04T04:25:30.586Z,1039.35
2019-01-04T04:26:30.448Z,1039.36
2019-01-04T04:27:30.262Z,1039.37
2019-01-04T04:28:30.750Z,1039.38
2019-01-04T04:29:30.176Z,1039.36
2019-01-04T04:30:30.478Z,1039.34
2019-01-04T04:31:31.078Z,1039.36
2019-01-04T04:32:30.124Z,1039.39
2019-01-04T04:33:30.092Z,1039.38
2019-01-04T04:34:30.431Z,1039.39
2019-01-04T04:35:30.315Z,1039.43
2019-01-04T04:36:30.229Z,1039.39
2019-01-04T04:37:30.337Z,1039.43
2019-01-04T04:38:30.172Z,1039.46
2019-01-04T04:39:29.912Z,1039.46
2019-01-04T04:40:30.920Z,1039.45
2019-01-04T04:41:30.138Z,1039.46
2019-01-04T04:42:29.964Z,1039.43
2019-01-04T04:43:30.417Z,1039.4
2019-01-04T04:44:30.214Z,1039.34
2019-01-04T04:45:30.020Z,1039.31
2019-01-04T04:46:30.284Z,1039.31
2019-01-04T04:47:30.192Z,1039.27
2019-01-04T04:48:30.428Z,1039.28
2019-01-04T04:49:30.159Z,1039.28
2019-01-04T04:50:30.084Z,1039.27
2019-01-04T04:51:30.100Z,1039.29
2019-01-04T04:52:29.940Z,1039.29
2019-01-04T04:53:30.653Z,1039.3
2019-01-04T04:54:30.254Z,1039.28
2019-01-04T04:55:30.228Z,1039.25
2019-01-04T04:56:30.171Z,1039.21
2019-01-04T04:57:29.962Z,1039.24
2019-01-04T04:58:30.467Z,1039.2
2019-01-04T04:59:30.329Z,1039.24
2019-01-04T05:00:30.166Z,1039.27
2019-01-04T05:01:30.230Z,1039.25
2019-01-04T05:02:30.142Z,1039.26
2019-01-04T05:03:30.122Z,1039.27
2019-01-04T05:04:30.075Z,1039.3
2019-01-04T05:05:29.953Z,1039.23
2019-01-04T05:06:30.468Z,1039.29
2019-01-04T05:07:30.151Z,1039.3
2019-01-04T05:08:30.151Z,1039.28
2019-01-04T05:09:30.264Z,1039.3
2019-01-04T05:10:30.063Z,1039.31
2019-01-04T05:11:30.043Z,1039.27
2019-01-04T05:12:29.808Z,1039.26
2019-01-04T05:13:30.088Z,1039.27
2019-01-04T05:14:30.102Z,1039.3
2019-01-04T05:15:30.388Z,1039.32
2019-01-04T05:16:30.245Z,1039.33
2019-01-04T05:17:31.354Z,1039.33
2019-01-04T05:18:30.188Z,1039.36
2019-01-04T05:19:29.901Z,1039.41
2019-01-04T05:20:30.282Z,1039.42
2019-01-04T05:21:30.214Z,1039.43
2019-01-04T05:22:30.271Z,1039.43
2019-01-04T05:23:30.059Z,1039.44
2019-01-04T05:24:30.057Z,1039.42
2019-01-04T05:25:30.092Z,1039.45
2019-01-04T05:26:30.152Z,1039.45
2019-01-04T05:27:30.344Z,1039.46
2019-01-04T05:28:30.187Z,1039.41
2019-01-04T05:29:30.141Z,1039.41
2019-01-04T05:30:29.993Z,1039.41
2019-01-04T05:31:30.233Z,1039.42
2019-01-04T05:32:30.445Z,1039.44
2019-01-04T05:33:30.016Z,1039.45
2019-01-04T05:34:30.125Z,1039.5
2019-01-04T05:35:30.425Z,1039.5
2019-01-04T05:36:30.140Z,1039.47
2019-01-04T05:37:29.910Z,1039.48
2019-01-04T05:38:30.006Z,1039.43
2019-01-04T05:39:30.209Z,1039.44
2019-01-04T05:40:30.165Z,1039.56
2019-01-04T05:41:30.204Z,1039.56
2019-01-04T05:42:29.898Z,1039.59
2019-01-04T05:43:30.063Z,1039.6
2019-01-04T05:44:30.081Z,1039.55
2019-01-04T05:45:30.097Z,1039.54
2019-01-04T05:46:30.005Z,1039.49
2019-01-04T05:47:30.203Z,1039.44
2019-01-04T05:48:29.981Z,1039.43
2019-01-04T05:49:30.103Z,1039.41
2019-01-04T05:50:29.952Z,1039.42
2019-01-04T05:51:30.211Z,1039.42
2019-01-04T05:52:30.141Z,1039.44
2019-01-04T05:53:30.189Z,1039.44
2019-01-04T05:54:30.197Z,1039.43
2019-01-04T05:55:30.042Z,1039.41
2019-01-04T05:56:30.149Z,1039.4
2019-01-04T05:57:29.879Z,1039.42
2019-01-04T05:58:29.931Z,1039.41
2019-01-04T05:59:31.044Z,1039.44
2019-01-04T06:00:30.408Z,1039.43
2019-01-04T06:01:30.286Z,1039.44
2019-01-04T06:02:30.646Z,1039.48
2019-01-04T06:03:30.000Z,1039.48
2019-01-04T06:04:30.159Z,1039.49
2019-01-04T06:05:30.066Z,1039.43
2019-01-04T06:06:30.354Z,1039.41
2019-01-04T06:07:30.648Z,1039.43
2019-01-04T06:08:29.929Z,1039.4
2019-01-04T06:09:30.082Z,1039.38
2019-01-04T06:10:30.477Z,1039.37
2019-01-04T06:11:30.420Z,1039.35
2019-01-04T06:12:30.264Z,1039.33
2019-01-04T06:13:30.019Z,1039.31
2019-01-04T06:14:30.113Z,1039.34
2019-01-04T06:15:30.223Z,1039.35
2019-01-04T06:16:30.018Z,1039.34
2019-01-04T06:17:30.313Z,1039.31
2019-01-04T06:18:30.024Z,1039.31
2019-01-04T06:19:30.339Z,1039.26
2019-01-04T06:20:30.998Z,1039.21
2019-01-04T06:21:30.024Z,1039.22
2019-01-04T06:22:30.483Z,1039.21
2019-01-04T06:23:30.854Z,1039.24
2019-01-04T06:24:29.957Z,1039.26
2019-01-04T06:25:30.490Z,1039.26
2019-01-04T06:26:30.043Z,1039.28
2019-01-04T06:27:30.944Z,1039.28
2019-01-04T06:28:30.128Z,1039.27
2019-01-04T06:29:30.834Z,1039.27
2019-01-04T06:30:30.132Z,1039.36
2019-01-04T06:31:30.293Z,1039.37
2019-01-04T06:32:30.036Z,1039.4
2019-01-04T06:33:30.326Z,1039.41
2019-01-04T06:34:30.501Z,1039.37
2019-01-04T06:35:30.452Z,1039.35
2019-01-04T06:36:30.789Z,1039.37
2019-01-04T06:37:30.242Z,1039.34
2019-01-04T06:38:30.594Z,1039.37
2019-01-04T06:39:30.384Z,1039.35
2019-01-04T06:40:30.171Z,1039.29
2019-01-04T06:41:30.391Z,1039.37
2019-01-04T06:42:30.893Z,1039.37
2019-01-04T06:43:30.291Z,1039.41
2019-01-04T06:44:31.038Z,1039.42
2019-01-04T06:45:30.763Z,1039.44
2019-01-04T06:46:30.115Z,1039.48
2019-01-04T06:47:30.008Z,1039.47
2019-01-04T06:48:30.112Z,1039.47
2019-01-04T06:49:30.212Z,1039.45
2019-01-04T06:50:30.354Z,1039.43
2019-01-04T06:51:30.045Z,1039.45
2019-01-04T06:52:30.165Z,1039.46
2019-01-04T06:53:30.376Z,1039.47
2019-01-04T06:54:30.276Z,1039.46
2019-01-04T06:55:29.893Z,1039.45
2019-01-04T06:56:30.125Z,1039.47
2019-01-04T06:57:29.949Z,1039.45
2019-01-04T06:58:30.032Z,1039.44
2019-01-04T06:59:30.511Z,1039.46
2019-01-04T07:00:29.875Z,1039.48
2019-01-04T07:01:30.319Z,1039.52
2019-01-04T07:02:30.164Z,1039.54
2019-01-04T07:03:30.213Z,1039.53
2019-01-04T07:04:30.655Z,1039.51
2019-01-04T07:05:29.845Z,1039.53
2019-01-04T07:06:30.198Z,1039.56
2019-01-04T07:07:30.110Z,1039.57
2019-01-04T07:08:30.400Z,1039.57
2019-01-04T07:09:30.472Z,1039.61
2019-01-04T07:10:30.197Z,1039.67
2019-01-04T07:11:29.994Z,1039.63
2019-01-04T07:12:30.624Z,1039.69
2019-01-04T07:13:30.029Z,1039.67
2019-01-04T07:14:30.030Z,1039.67
2019-01-04T07:15:29.917Z,1039.66
2019-01-04T07:16:30.211Z,1039.68
2019-01-04T07:17:30.356Z,1039.66
2019-01-04T07:18:29.953Z,1039.67
2019-01-04T07:19:30.159Z,1039.69
2019-01-04T07:20:29.831Z,1039.7
2019-01-04T07:21:30.000Z,1039.7
2019-01-04T07:22:30.262Z,1039.71
2019-01-04T07:23:30.171Z,1039.7
2019-01-04T07:24:29.939Z,1039.7
2019-01-04T07:25:30.134Z,1039.68
2019-01-04T07:26:30.050Z,1039.71
2019-01-04T07:27:30.385Z,1039.76
2019-01-04T07:28:29.918Z,1039.76
2019-01-04T07:29:29.935Z,1039.78
2019-01-04T07:30:30.631Z,1039.83
2019-01-04T07:31:30.130Z,1039.82
2019-01-04T07:32:30.279Z,1039.83
2019-01-04T07:33:30.356Z,1039.85
2019-01-04T07:34:30.015Z,1039.9
2019-01-04T07:35:30.906Z,1039.9
2019-01-04T07:36:30.223Z,1039.86
2019-01-04T07:37:30.559Z,1039.89
2019-01-04T07:38:30.802Z,1039.91
2019-01-04T07:39:30.809Z,1039.96
2019-01-04T07:40:30.072Z,1039.97
2019-01-04T07:41:30.892Z,1039.94
2019-01-04T07:42:30.300Z,1039.9
2019-01-04T07:43:30.089Z,1039.94
2019-01-04T07:44:30.407Z,1039.92
2019-01-04T07:45:30.087Z,1039.94
2019-01-04T07:46:30.181Z,1039.94
2019-01-04T07:47:30.331Z,1039.94
2019-01-04T07:48:30.355Z,1039.95
2019-01-04T07:49:30.160Z,1039.96
2019-01-04T07:50:30.920Z,1039.99
2019-01-04T07:51:30.139Z,1040.01
2019-01-04T07:52:30.375Z,1040.01
2019-01-04T07:53:30.086Z,1040.06
2019-01-04T07:54:31.499Z,1040.07
2019-01-04T07:55:30.177Z,1040.04
2019-01-04T07:56:30.141Z,1040.04
2019-01-04T07:57:29.921Z,1040.04
2019-01-04T07:58:30.075Z,1040.04
2019-01-04T07:59:30.166Z,1040.02
2019-01-04T08:00:30.326Z,1040.06
2019-01-04T08:01:30.047Z,1040.08
2019-01-04T08:02:30.396Z,1040.06
2019-01-04T08:03:30.484Z,1040.04
2019-01-04T08:04:30.172Z,1039.97
2019-01-04T08:05:30.256Z,1040.03
2019-01-04T08:06:30.070Z,1040.04
2019-01-04T08:07:30.263Z,1040.05
2019-01-04T08:08:30.078Z,1040
2019-01-04T08:09:30.473Z,1039.99
2019-01-04T08:10:29.951Z,1040.04
2019-01-04T08:11:30.368Z,1040.01
2019-01-04T08:12:30.037Z,1040.05
2019-01-04T08:13:30.227Z,1040.1
2019-01-04T08:14:30.309Z,1040.1
2019-01-04T08:15:30.236Z,1040.1
2019-01-04T08:16:30.402Z,1040.11
2019-01-04T08:17:30.221Z,1040.14
2019-01-04T08:18:29.994Z,1040.17
2019-01-04T08:19:30.420Z,1040.23
2019-01-04T08:20:29.862Z,1040.24
2019-01-04T08:21:30.091Z,1040.24
2019-01-04T08:22:30.115Z,1040.26
2019-01-04T08:23:30.075Z,1040.24
2019-01-04T08:24:30.209Z,1040.27
2019-01-04T08:25:30.061Z,1040.25
2019-01-04T08:26:30.240Z,1040.2
2019-01-04T08:27:30.085Z,1040.17
2019-01-04T08:28:29.820Z,1040.12
2019-01-04T08:29:30.511Z,1040.11
2019-01-04T08:30:30.235Z,1040.09
2019-01-04T08:31:30.154Z,1040.09
2019-01-04T08:32:30.952Z,1040.09
2019-01-04T08:33:29.840Z,1040.12
2019-01-04T08:34:30.833Z,1040.1
2019-01-04T08:35:30.711Z,1040.11
2019-01-04T08:36:29.927Z,1040.08
2019-01-04T08:37:30.138Z,1040.1
2019-01-04T08:38:29.732Z,1040.11
2019-01-04T08:39:29.961Z,1040.13
2019-01-04T08:40:30.168Z,1040.12
2019-01-04T08:41:30.167Z,1040.12
2019-01-04T08:42:30.342Z,1040.12
2019-01-04T08:43:29.875Z,1040.11
2019-01-04T08:44:30.044Z,1040.1
2019-01-04T08:45:31.130Z,1040.11
2019-01-04T08:46:30.260Z,1040.08
2019-01-04T08:47:30.479Z,1040.11
2019-01-04T08:48:30.271Z,1040.11
2019-01-04T08:49:30.695Z,1040.12
2019-01-04T08:50:30.510Z,1040.12
2019-01-04T08:51:30.771Z,1040.13
2019-01-04T08:52:30.430Z,1040.1
2019-01-04T08:53:30.129Z,1040.12
2019-01-04T08:54:30.162Z,1040.09
2019-01-04T08:55:30.091Z,1040.1
2019-01-04T08:56:29.916Z,1040.11
2019-01-04T08:57:29.912Z,1040.08
2019-01-04T08:58:30.165Z,1040.08
2019-01-04T08:59:30.091Z,1040.1
2019-01-04T09:00:30.376Z,1040.08
2019-01-04T09:01:30.086Z,1040.11
2019-01-04T09:02:30.063Z,1040.12
2019-01-04T09:03:29.964Z,1040.12
2019-01-04T09:04:29.944Z,1040.16
2019-01-04T09:05:29.974Z,1040.11
2019-01-04T09:06:30.154Z,1040.07
2019-01-04T09:07:30.269Z,1040.05
2019-01-04T09:08:30.106Z,1039.98
2019-01-04T09:09:29.857Z,1040
2019-01-04T09:10:29.983Z,1039.98
2019-01-04T09:11:30.260Z,1039.97
2019-01-04T09:12:30.041Z,1039.99
2019-01-04T09:13:30.011Z,1040.01
2019-01-04T09:14:30.113Z,1040.03
2019-01-04T09:15:29.902Z,1039.99
2019-01-04T09:16:30.029Z,1040.01
2019-01-04T09:17:30.167Z,1040.04
2019-01-04T09:18:29.903Z,1040.05
2019-01-04T09:19:30.401Z,1040.06
2019-01-04T09:20:29.962Z,1040.14
2019-01-04T09:21:30.324Z,1040.17
2019-01-04T09:22:30.479Z,1040.24
2019-01-04T09:23:30.615Z,1040.25
2019-01-04T09:24:30.330Z,1040.24
2019-01-04T09:25:30.068Z,1040.2
2019-01-04T09:26:30.076Z,1040.2
2019-01-04T09:27:30.082Z,1040.2
2019-01-04T09:28:30.037Z,1040.15
2019-01-04T09:29:30.174Z,1040.17
2019-01-04T09:30:30.546Z,1040.12
2019-01-04T09:31:30.271Z,1040.07
2019-01-04T09:32:31.205Z,1040.09
2019-01-04T09:33:30.287Z,1040.08
2019-01-04T09:34:30.028Z,1040.06
2019-01-04T09:35:29.945Z,1040.07
2019-01-04T09:36:30.063Z,1040.05
2019-01-04T09:37:29.941Z,1040.09
2019-01-04T09:38:30.259Z,1040.12
2019-01-04T09:39:30.363Z,1040.11
2019-01-04T09:40:29.946Z,1040.18
2019-01-04T09:41:30.368Z,1040.14
2019-01-04T09:42:30.069Z,1040.15
2019-01-04T09:43:29.897Z,1040.1
2019-01-04T09:44:30.058Z,1040.09
2019-01-04T09:45:30.284Z,1040.05
2019-01-04T09:46:31.328Z,1040.06
2019-01-04T09:47:30.458Z,1040.04
2019-01-04T09:48:30.305Z,1040.01
2019-01-04T09:49:30.197Z,1040.07
2019-01-04T09:50:30.221Z,1040.03
2019-01-04T09:51:30.098Z,1040.01
2019-01-04T09:52:30.154Z,1039.99
2019-01-04T09:53:29.918Z,1039.97
2019-01-04T09:54:30.505Z,1039.97
2019-01-04T09:55:30.353Z,1039.95
2019-01-04T09:56:30.721Z,1039.95
2019-01-04T09:57:30.483Z,1039.95
2019-01-04T09:58:29.905Z,1039.96
2019-01-04T09:59:29.934Z,1039.99
2019-01-04T10:00:30.405Z,1039.98
2019-01-04T10:01:30.358Z,1039.93
2019-01-04T10:02:30.333Z,1039.92
2019-01-04T10:03:29.951Z,1039.92
2019-01-04T10:04:30.329Z,1039.88
2019-01-04T10:05:30.972Z,1039.85
2019-01-04T10:06:30.237Z,1039.82
2019-01-04T10:07:30.543Z,1039.77
2019-01-04T10:08:30.045Z,1039.72
2019-01-04T10:09:29.891Z,1039.68
2019-01-04T10:10:30.394Z,1039.68
2019-01-04T10:11:30.167Z,1039.66
2019-01-04T10:12:30.206Z,1039.62
2019-01-04T10:13:30.432Z,1039.6
2019-01-04T10:14:30.871Z,1039.56
2019-01-04T10:15:30.126Z,1039.57
2019-01-04T10:16:30.314Z,1039.49
2019-01-04T10:17:30.223Z,1039.5
2019-01-04T10:18:29.825Z,1039.47
2019-01-04T10:19:30.213Z,1039.49
2019-01-04T10:20:30.401Z,1039.51
2019-01-04T10:21:30.841Z,1039.46
2019-01-04T10:22:29.886Z,1039.42
2019-01-04T10:23:30.065Z,1039.38
2019-01-04T10:24:30.092Z,1039.34
2019-01-04T10:25:30.148Z,1039.34
2019-01-04T10:26:29.784Z,1039.31
2019-01-04T10:27:30.259Z,1039.31
2019-01-04T10:28:30.228Z,1039.31
2019-01-04T10:29:30.163Z,1039.29
2019-01-04T10:30:30.297Z,1039.3
2019-01-04T10:31:30.340Z,1039.3
2019-01-04T10:32:29.935Z,1039.28
2019-01-04T10:33:30.330Z,1039.31
2019-01-04T10:34:30.811Z,1039.3
2019-01-04T10:35:30.120Z,1039.29
2019-01-04T10:36:29.976Z,1039.28
2019-01-04T10:37:30.297Z,1039.31
2019-01-04T10:38:30.050Z,1039.29
2019-01-04T10:39:30.052Z,1039.26
2019-01-04T10:40:30.406Z,1039.28
2019-01-04T10:41:29.968Z,1039.23
2019-01-04T10:42:29.912Z,1039.22
2019-01-04T10:43:30.239Z,1039.18
2019-01-04T10:44:30.180Z,1039.15
2019-01-04T10:45:29.915Z,1039.16
2019-01-04T10:46:30.105Z,1039.15
2019-01-04T10:47:30.501Z,1039.12
2019-01-04T10:48:30.171Z,1039.14
2019-01-04T10:49:29.855Z,1039.07
2019-01-04T10:50:30.015Z,1039.05
2019-01-04T10:51:29.875Z,1039.06
2019-01-04T10:52:30.025Z,1038.99
2019-01-04T10:53:30.365Z,1039
2019-01-04T10:54:30.046Z,1038.98
2019-01-04T10:55:30.025Z,1038.95
2019-01-04T10:56:29.759Z,1038.95
2019-01-04T10:57:30.116Z,1038.98
2019-01-04T10:58:30.076Z,1038.93
2019-01-04T10:59:29.824Z,1038.95
2019-01-04T11:00:29.983Z,1038.96
2019-01-04T11:01:30.124Z,1038.93
2019-01-04T11:02:29.977Z,1038.92
2019-01-04T11:03:30.217Z,1038.99
2019-01-04T11:04:29.863Z,1038.98
2019-01-04T11:05:29.966Z,1038.96
2019-01-04T11:06:30.050Z,1038.96
2019-01-04T11:07:30.339Z,1038.93
2019-01-04T11:08:29.969Z,1038.99
2019-01-04T11:09:29.887Z,1038.99
2019-01-04T11:10:29.939Z,1039
2019-01-04T11:11:29.964Z,1039.01
2019-01-04T11:12:30.287Z,1038.99
2019-01-04T11:13:29.943Z,1038.96
2019-01-04T11:14:29.871Z,1038.99
2019-01-04T11:15:29.930Z,1038.97
2019-01-04T11:16:30.535Z,1038.96
2019-01-04T11:17:30.354Z,1038.94
2019-01-04T11:18:30.173Z,1038.99
2019-01-04T11:19:30.145Z,1039.01
2019-01-04T11:20:30.151Z,1038.99
2019-01-04T11:21:29.978Z,1038.95
2019-01-04T11:22:30.394Z,1038.92
2019-01-04T11:23:30.016Z,1038.88
2019-01-04T11:24:30.590Z,1038.85
2019-01-04T11:25:29.929Z,1038.86
2019-01-04T11:26:30.427Z,1038.86
2019-01-04T11:27:30.005Z,1038.89
2019-01-04T11:28:30.282Z,1038.85
2019-01-04T11:29:30.334Z,1038.79
2019-01-04T11:30:29.892Z,1038.81
2019-01-04T11:31:30.389Z,1038.77
2019-01-04T11:32:29.867Z,1038.78
2019-01-04T11:33:30.091Z,1038.75
2019-01-04T11:34:30.424Z,1038.79
2019-01-04T11:35:30.142Z,1038.72
2019-01-04T11:36:30.038Z,1038.74
2019-01-04T11:37:30.059Z,1038.72
2019-01-04T11:38:30.071Z,1038.7
2019-01-04T11:39:30.019Z,1038.69
2019-01-04T11:40:30.523Z,1038.69
2019-01-04T11:41:30.713Z,1038.67
2019-01-04T11:42:30.406Z,1038.64
2019-01-04T11:43:29.830Z,1038.64
2019-01-04T11:44:30.092Z,1038.61
2019-01-04T11:45:29.850Z,1038.59
2019-01-04T11:46:30.095Z,1038.57
2019-01-04T11:47:30.219Z,1038.54
2019-01-04T11:48:29.834Z,1038.54
2019-01-04T11:49:31.742Z,1038.52
2019-01-04T11:50:30.156Z,1038.49
2019-01-04T11:51:30.774Z,1038.48
2019-01-04T11:52:31.532Z,1038.51
2019-01-04T11:53:30.054Z,1038.49
2019-01-04T11:54:30.068Z,1038.42
2019-01-04T11:55:30.697Z,1038.44
2019-01-04T11:56:29.924Z,1038.41
2019-01-04T11:57:30.100Z,1038.41
2019-01-04T11:58:29.857Z,1038.38
2019-01-04T11:59:29.970Z,1038.39
2019-01-04T12:00:30.380Z,1038.32
2019-01-04T12:01:30.381Z,1038.28
2019-01-04T12:02:29.986Z,1038.24
2019-01-04T12:03:29.834Z,1038.2
2019-01-04T12:04:29.930Z,1038.21
2019-01-04T12:05:30.150Z,1038.16
2019-01-04T12:06:30.236Z,1038.14
2019-01-04T12:07:30.165Z,1038.16
2019-01-04T12:08:30.290Z,1038.22